Wetterdaten: Woche 26.03.07 - 01.04.07 (KW13)
Datum Zeit Temperatur Luftfeuchte Luftdruck Niederschlag Wind Richtung Sonnenschein UV-Strahlung Solar Taupunkt Windchill Windben
26.03.2007 00:00 1.6 C 93 % 1016.0 hPa 0.0 l/m 1.1 km/h (1 Bft) O 0.00 h 0.0 UV-I 0 W/m 0.6 C 1.5 C 2.5 km/h (1 Bft)
26.03.2007 01:00 0.8 C 94 % 1015.9 hPa 0.0 l/m 2.2 km/h (1 Bft) O 0.00 h 0.0 UV-I 0 W/m 0.0 C 0.5 C 3.4 km/h (1 Bft)
26.03.2007 02:00 0.5 C 95 % 1015.8 hPa 0.0 l/m 0.4 km/h (0 Bft) O 0.00 h 0.0 UV-I 0 W/m -0.2 C 0.5 C 1.1 km/h (0 Bft)
26.03.2007 03:00 0.3 C 96 % 1016.0 hPa 0.0 l/m 0.7 km/h (0 Bft) O-SO 0.00 h 0.0 UV-I 0 W/m -0.3 C 0.3 C 1.4 km/h (1 Bft)
26.03.2007 04:00 0.4 C 97 % 1016.2 hPa 0.0 l/m 0.3 km/h (0 Bft) NO 0.00 h 0.0 UV-I 0 W/m -0.0 C 0.4 C 1.2 km/h (1 Bft)
26.03.2007 05:00 -0.0 C 97 % 1016.3 hPa 0.0 l/m 1.0 km/h (0 Bft) O 0.00 h 0.0 UV-I 0 W/m -0.4 C -0.0 C 2.3 km/h (1 Bft)
26.03.2007 06:00 0.4 C 98 % 1016.3 hPa 0.0 l/m 0.2 km/h (0 Bft) O 0.00 h 0.0 UV-I 0 W/m 0.1 C 0.4 C 0.9 km/h (0 Bft)
26.03.2007 07:00 0.0 C 97 % 1016.7 hPa 0.0 l/m 0.4 km/h (0 Bft) O 0.02 h 0.0 UV-I 15 W/m -0.3 C 0.0 C 1.2 km/h (1 Bft)
26.03.2007 08:00 0.9 C 98 % 1017.5 hPa 0.2 l/m 0.0 km/h (0 Bft) N 0.82 h 0.5 UV-I 125 W/m 0.6 C 0.9 C 0.5 km/h (0 Bft)
26.03.2007 09:00 4.0 C 87 % 1017.5 hPa 0.0 l/m 1.6 km/h (1 Bft) O-NO 1.00 h 0.9 UV-I 285 W/m 2.0 C 3.8 C 3.7 km/h (1 Bft)
26.03.2007 10:00 7.5 C 72 % 1017.3 hPa 0.0 l/m 5.6 km/h (1 Bft) O-SO 1.00 h 1.7 UV-I 447 W/m 2.8 C 6.8 C 10.5 km/h (2 Bft)
26.03.2007 11:00 9.3 C 69 % 1017.1 hPa 0.0 l/m 7.1 km/h (2 Bft) O-SO 1.00 h 2.6 UV-I 570 W/m 3.8 C 8.4 C 12.1 km/h (2 Bft)
26.03.2007 12:00 10.8 C 63 % 1016.8 hPa 0.0 l/m 10.4 km/h (2 Bft) O-SO 1.00 h 3.4 UV-I 653 W/m 4.0 C 10.8 C 16.4 km/h (3 Bft)
26.03.2007 13:00 12.6 C 57 % 1016.3 hPa 0.0 l/m 8.1 km/h (2 Bft) O-SO 1.00 h 3.6 UV-I 687 W/m 4.3 C 12.6 C 13.2 km/h (3 Bft)
26.03.2007 14:00 13.9 C 54 % 1015.7 hPa 0.0 l/m 8.9 km/h (2 Bft) O-SO 1.00 h 3.4 UV-I 664 W/m 4.8 C 13.9 C 13.5 km/h (3 Bft)
26.03.2007 15:00 14.9 C 52 % 1015.3 hPa 0.0 l/m 8.2 km/h (2 Bft) O-SO 1.00 h 2.6 UV-I 589 W/m 5.2 C 14.9 C 12.3 km/h (3 Bft)
26.03.2007 16:00 15.7 C 48 % 1015.3 hPa 0.0 l/m 9.1 km/h (2 Bft) O-SO 1.00 h 1.7 UV-I 468 W/m 4.5 C 15.7 C 14.0 km/h (3 Bft)
26.03.2007 17:00 15.7 C 47 % 1014.9 hPa 0.0 l/m 8.6 km/h (2 Bft) O-SO 1.00 h 1.0 UV-I 310 W/m 4.5 C 15.7 C 13.6 km/h (3 Bft)
26.03.2007 18:00 15.1 C 48 % 1014.8 hPa 0.0 l/m 5.0 km/h (1 Bft) O-SO 0.17 h 0.6 UV-I 72 W/m 4.3 C 15.1 C 8.1 km/h (2 Bft)
26.03.2007 19:00 13.7 C 55 % 1015.2 hPa 0.0 l/m 0.7 km/h (0 Bft) O-SO 0.00 h 0.0 UV-I 25 W/m 4.6 C 13.7 C 1.9 km/h (1 Bft)
26.03.2007 20:00 11.0 C 67 % 1015.6 hPa 0.0 l/m 1.0 km/h (0 Bft) N-NO 0.00 h 0.0 UV-I 0 W/m 5.0 C 11.0 C 2.3 km/h (1 Bft)
26.03.2007 21:00 8.6 C 76 % 1016.0 hPa 0.0 l/m 1.2 km/h (1 Bft) O 0.00 h 0.0 UV-I 0 W/m 4.6 C 8.6 C 2.4 km/h (1 Bft)
26.03.2007 22:00 6.9 C 81 % 1016.3 hPa 0.0 l/m 2.3 km/h (1 Bft) O 0.00 h 0.0 UV-I 0 W/m 3.9 C 6.8 C 3.3 km/h (1 Bft)
26.03.2007 23:00 6.0 C 83 % 1016.1 hPa 0.0 l/m 2.9 km/h (1 Bft) O 0.00 h 0.0 UV-I 0 W/m 3.3 C 5.8 C 4.5 km/h (1 Bft)
27.03.2007 00:00 5.8 C 81 % 1016.1 hPa 0.0 l/m 0.6 km/h (0 Bft) SO 0.00 h 0.0 UV-I 0 W/m 2.7 C 5.8 C 1.3 km/h (1 Bft)
27.03.2007 01:00 4.4 C 84 % 1016.2 hPa 0.0 l/m 2.7 km/h (1 Bft) O-SO 0.00 h 0.0 UV-I 0 W/m 1.9 C 4.0 C 4.4 km/h (1 Bft)
27.03.2007 02:00 3.7 C 84 % 1016.1 hPa 0.0 l/m 2.7 km/h (1 Bft) O-SO 0.00 h 0.0 UV-I 0 W/m 1.3 C 3.3 C 4.3 km/h (1 Bft)
27.03.2007 03:00 2.7 C 87 % 1016.1 hPa 0.0 l/m 2.8 km/h (1 Bft) O-SO 0.00 h 0.0 UV-I 0 W/m 0.7 C 2.5 C 4.2 km/h (1 Bft)
27.03.2007 04:00 2.1 C 88 % 1016.0 hPa 0.0 l/m 1.7 km/h (1 Bft) O-SO 0.00 h 0.0 UV-I 0 W/m 0.4 C 1.9 C 2.7 km/h (1 Bft)
27.03.2007 05:00 1.7 C 89 % 1016.2 hPa 0.0 l/m 1.6 km/h (1 Bft) O-SO 0.00 h 0.0 UV-I 0 W/m 0.1 C 1.5 C 2.9 km/h (1 Bft)
27.03.2007 06:00 0.9 C 91 % 1016.3 hPa 0.0 l/m 0.6 km/h (0 Bft) O 0.00 h 0.0 UV-I 0 W/m -0.4 C 0.9 C 1.1 km/h (1 Bft)
27.03.2007 07:00 0.6 C 92 % 1016.6 hPa 0.0 l/m 0.7 km/h (0 Bft) O 0.02 h 0.0 UV-I 20 W/m -0.5 C 0.6 C 1.3 km/h (1 Bft)
27.03.2007 08:00 1.4 C 91 % 1017.0 hPa 0.0 l/m 0.6 km/h (0 Bft) O 0.35 h 0.5 UV-I 108 W/m 0.1 C 1.4 C 1.1 km/h (1 Bft)
27.03.2007 09:00 3.5 C 88 % 1017.1 hPa 0.0 l/m 0.0 km/h (0 Bft) O 0.33 h 0.7 UV-I 195 W/m 1.8 C 3.5 C 0.4 km/h (0 Bft)
27.03.2007 10:00 5.7 C 82 % 1017.0 hPa 0.0 l/m 0.5 km/h (0 Bft) SO 0.37 h 1.3 UV-I 292 W/m 2.9 C 5.7 C 2.0 km/h (1 Bft)
27.03.2007 11:00 7.8 C 73 % 1016.8 hPa 0.0 l/m 2.3 km/h (1 Bft) NW 0.95 h 2.3 UV-I 529 W/m 3.2 C 7.8 C 4.3 km/h (1 Bft)
27.03.2007 12:00 10.2 C 64 % 1016.2 hPa 0.0 l/m 2.8 km/h (1 Bft) W-NW 1.00 h 3.1 UV-I 633 W/m 3.7 C 10.1 C 5.0 km/h (1 Bft)
27.03.2007 13:00 11.9 C 61 % 1015.7 hPa 0.0 l/m 2.6 km/h (1 Bft) SO 1.00 h 3.3 UV-I 636 W/m 4.7 C 11.9 C 5.3 km/h (1 Bft)
27.03.2007 14:00 13.2 C 58 % 1015.2 hPa 0.0 l/m 3.4 km/h (1 Bft) SO 1.00 h 3.2 UV-I 623 W/m 5.0 C 13.2 C 6.1 km/h (2 Bft)
27.03.2007 15:00 14.3 C 54 % 1014.6 hPa 0.0 l/m 2.9 km/h (1 Bft) O-SO 1.00 h 2.5 UV-I 557 W/m 5.0 C 14.3 C 5.3 km/h (1 Bft)
27.03.2007 16:00 15.1 C 47 % 1014.3 hPa 0.0 l/m 2.3 km/h (1 Bft) O 1.00 h 1.8 UV-I 462 W/m 3.8 C 15.1 C 4.7 km/h (1 Bft)
27.03.2007 17:00 15.7 C 41 % 1014.2 hPa 0.0 l/m 3.3 km/h (1 Bft) N-NW 0.97 h 1.0 UV-I 316 W/m 2.5 C 15.7 C 5.7 km/h (1 Bft)
27.03.2007 18:00 14.6 C 45 % 1014.5 hPa 0.0 l/m 0.9 km/h (0 Bft) W-NW 0.00 h 0.5 UV-I 90 W/m 2.6 C 14.6 C 2.2 km/h (1 Bft)
27.03.2007 19:00 12.8 C 57 % 1014.7 hPa 0.0 l/m 2.0 km/h (1 Bft) O 0.00 h 0.0 UV-I 20 W/m 4.4 C 12.8 C 4.1 km/h (1 Bft)
27.03.2007 20:00 12.6 C 53 % 1015.4 hPa 0.0 l/m 2.1 km/h (1 Bft) N-NW 0.00 h 0.0 UV-I 0 W/m 3.1 C 12.6 C 4.3 km/h (1 Bft)
27.03.2007 21:00 10.8 C 59 % 1015.8 hPa 0.0 l/m 0.8 km/h (0 Bft) NO 0.00 h 0.0 UV-I 0 W/m 3.0 C 10.8 C 2.0 km/h (1 Bft)
27.03.2007 22:00 8.5 C 73 % 1015.8 hPa 0.0 l/m 2.2 km/h (1 Bft) O 0.00 h 0.0 UV-I 0 W/m 3.9 C 8.5 C 3.7 km/h (1 Bft)
27.03.2007 23:00 6.3 C 81 % 1015.8 hPa 0.0 l/m 0.7 km/h (0 Bft) O 0.00 h 0.0 UV-I 0 W/m 3.3 C 6.3 C 1.6 km/h (1 Bft)
28.03.2007 00:00 5.1 C 85 % 1015.8 hPa 0.0 l/m 1.6 km/h (1 Bft) O 0.00 h 0.0 UV-I 0 W/m 2.8 C 5.0 C 2.8 km/h (1 Bft)
28.03.2007 01:00 4.2 C 87 % 1016.0 hPa 0.0 l/m 2.9 km/h (1 Bft) O 0.00 h 0.0 UV-I 0 W/m 2.3 C 3.7 C 4.0 km/h (1 Bft)
28.03.2007 02:00 3.4 C 89 % 1016.3 hPa 0.0 l/m 1.6 km/h (1 Bft) SO 0.00 h 0.0 UV-I 0 W/m 1.8 C 3.4 C 2.7 km/h (1 Bft)
28.03.2007 03:00 2.6 C 91 % 1016.2 hPa 0.0 l/m 1.0 km/h (0 Bft) O-SO 0.00 h 0.0 UV-I 0 W/m 1.3 C 2.5 C 2.3 km/h (1 Bft)
28.03.2007 04:00 1.9 C 92 % 1016.2 hPa 0.0 l/m 0.8 km/h (0 Bft) O-SO 0.00 h 0.0 UV-I 0 W/m 0.8 C 1.9 C 1.8 km/h (1 Bft)
28.03.2007 05:00 1.4 C 93 % 1016.2 hPa 0.0 l/m 2.0 km/h (1 Bft) O-SO 0.00 h 0.0 UV-I 0 W/m 0.5 C 1.3 C 2.9 km/h (1 Bft)
28.03.2007 06:00 1.1 C 94 % 1016.6 hPa 0.0 l/m 1.4 km/h (1 Bft) O-SO 0.00 h 0.0 UV-I 0 W/m 0.3 C 1.1 C 2.6 km/h (1 Bft)
28.03.2007 07:00 0.8 C 94 % 1016.9 hPa 0.0 l/m 0.3 km/h (0 Bft) O-SO 0.00 h 0.0 UV-I 15 W/m -0.0 C 0.8 C 0.8 km/h (0 Bft)
28.03.2007 08:00 1.2 C 96 % 1017.2 hPa 0.0 l/m 0.0 km/h (0 Bft) N 0.00 h 0.0 UV-I 69 W/m 0.6 C 1.2 C 0.2 km/h (0 Bft)
28.03.2007 09:00 3.1 C 92 % 1017.2 hPa 0.0 l/m 0.0 km/h (0 Bft) O-SO 0.55 h 0.8 UV-I 223 W/m 1.9 C 3.1 C 0.4 km/h (0 Bft)
28.03.2007 10:00 5.6 C 84 % 1017.1 hPa 0.0 l/m 1.0 km/h (0 Bft) O-SO 1.00 h 1.6 UV-I 413 W/m 3.1 C 5.5 C 2.4 km/h (1 Bft)
28.03.2007 11:00 9.1 C 72 % 1016.5 hPa 0.0 l/m 2.6 km/h (1 Bft) S-SO 1.00 h 2.4 UV-I 538 W/m 4.3 C 9.0 C 5.0 km/h (1 Bft)
28.03.2007 12:00 11.5 C 64 % 1015.7 hPa 0.0 l/m 2.1 km/h (1 Bft) S-SO 1.00 h 3.1 UV-I 634 W/m 4.9 C 11.5 C 4.4 km/h (1 Bft)
28.03.2007 13:00 13.5 C 57 % 1014.9 hPa 0.0 l/m 2.3 km/h (1 Bft) N-NW 1.00 h 3.3 UV-I 654 W/m 5.1 C 13.5 C 4.6 km/h (1 Bft)
28.03.2007 14:00 15.0 C 48 % 1014.4 hPa 0.0 l/m 3.9 km/h (1 Bft) N-NW 0.82 h 3.0 UV-I 652 W/m 4.0 C 15.0 C 6.2 km/h (2 Bft)
28.03.2007 15:00 13.7 C 51 % 1014.3 hPa 0.0 l/m 12.1 km/h (2 Bft) N-NW 0.32 h 1.2 UV-I 274 W/m 3.6 C 13.7 C 18.1 km/h (3 Bft)
28.03.2007 16:00 11.7 C 61 % 1014.5 hPa 0.0 l/m 5.3 km/h (1 Bft) N-NW 0.00 h 0.6 UV-I 105 W/m 4.4 C 11.7 C 8.6 km/h (2 Bft)
28.03.2007 17:00 12.2 C 58 % 1014.0 hPa 0.0 l/m 1.7 km/h (1 Bft) SW 0.00 h 0.6 UV-I 137 W/m 4.2 C 12.2 C 3.3 km/h (1 Bft)
28.03.2007 18:00 12.4 C 56 % 1013.9 hPa 0.0 l/m 1.0 km/h (0 Bft) O 0.00 h 0.5 UV-I 83 W/m 3.8 C 12.4 C 2.0 km/h (1 Bft)
28.03.2007 19:00 11.3 C 60 % 1014.3 hPa 0.0 l/m 2.5 km/h (1 Bft) SO 0.00 h 0.0 UV-I 23 W/m 3.8 C 11.3 C 5.6 km/h (1 Bft)
28.03.2007 20:00 9.1 C 69 % 1014.7 hPa 0.0 l/m 1.9 km/h (1 Bft) SO 0.00 h 0.0 UV-I 0 W/m 3.8 C 9.0 C 3.2 km/h (1 Bft)
28.03.2007 21:00 7.0 C 78 % 1014.7 hPa 0.0 l/m 1.8 km/h (1 Bft) O 0.00 h 0.0 UV-I 0 W/m 3.5 C 6.9 C 3.1 km/h (1 Bft)
28.03.2007 22:00 5.6 C 85 % 1014.8 hPa 0.0 l/m 2.7 km/h (1 Bft) O-SO 0.00 h 0.0 UV-I 0 W/m 3.2 C 5.3 C 4.1 km/h (1 Bft)
28.03.2007 23:00 4.8 C 87 % 1015.0 hPa 0.0 l/m 1.2 km/h (1 Bft) SO 0.00 h 0.0 UV-I 0 W/m 2.9 C 4.8 C 2.0 km/h (1 Bft)
29.03.2007 00:00 4.0 C 88 % 1014.9 hPa 0.0 l/m 1.6 km/h (1 Bft) O 0.00 h 0.0 UV-I 0 W/m 2.2 C 4.0 C 2.6 km/h (1 Bft)
29.03.2007 01:00 3.1 C 90 % 1015.0 hPa 0.0 l/m 1.6 km/h (1 Bft) O-SO 0.00 h 0.0 UV-I 0 W/m 1.7 C 3.1 C 2.6 km/h (1 Bft)
29.03.2007 02:00 2.9 C 91 % 1015.3 hPa 0.0 l/m 1.7 km/h (1 Bft) O-SO 0.00 h 0.0 UV-I 0 W/m 1.6 C 2.8 C 2.8 km/h (1 Bft)
29.03.2007 03:00 2.1 C 93 % 1015.4 hPa 0.0 l/m 0.7 km/h (0 Bft) O-SO 0.00 h 0.0 UV-I 0 W/m 1.0 C 2.1 C 1.3 km/h (1 Bft)
29.03.2007 04:00 1.8 C 94 % 1015.5 hPa 0.0 l/m 1.4 km/h (1 Bft) O-SO 0.00 h 0.0 UV-I 0 W/m 1.0 C 1.7 C 2.4 km/h (1 Bft)
29.03.2007 05:00 1.2 C 95 % 1015.7 hPa 0.0 l/m 1.4 km/h (1 Bft) O-SO 0.00 h 0.0 UV-I 0 W/m 0.5 C 1.2 C 2.3 km/h (1 Bft)
29.03.2007 06:00 0.9 C 96 % 1015.8 hPa 0.0 l/m 0.5 km/h (0 Bft) O-SO 0.00 h 0.0 UV-I 0 W/m 0.3 C 0.9 C 0.8 km/h (0 Bft)
29.03.2007 07:00 0.9 C 96 % 1016.1 hPa 0.0 l/m 0.7 km/h (0 Bft) O-SO 0.00 h 0.0 UV-I 19 W/m 0.3 C 0.8 C 1.3 km/h (1 Bft)
29.03.2007 08:00 1.7 C 96 % 1016.6 hPa 0.0 l/m 0.0 km/h (0 Bft) N 0.25 h 0.5 UV-I 116 W/m 1.1 C 1.7 C 0.0 km/h (0 Bft)
29.03.2007 09:00 4.0 C 89 % 1016.7 hPa 0.0 l/m 1.6 km/h (1 Bft) O-SO 0.90 h 0.9 UV-I 266 W/m 2.4 C 4.0 C 2.9 km/h (1 Bft)
29.03.2007 10:00 6.8 C 80 % 1016.5 hPa 0.0 l/m 2.4 km/h (1 Bft) SO 0.60 h 1.5 UV-I 369 W/m 3.6 C 6.7 C 4.7 km/h (1 Bft)
29.03.2007 11:00 9.5 C 69 % 1016.2 hPa 0.0 l/m 4.8 km/h (1 Bft) S-SO 0.57 h 2.3 UV-I 435 W/m 4.1 C 9.3 C 8.7 km/h (2 Bft)
29.03.2007 12:00 12.3 C 60 % 1015.5 hPa 0.0 l/m 5.9 km/h (2 Bft) S-SO 1.00 h 3.3 UV-I 640 W/m 4.9 C 12.3 C 11.1 km/h (2 Bft)
29.03.2007 13:00 13.9 C 53 % 1014.8 hPa 0.0 l/m 4.8 km/h (1 Bft) S 0.78 h 3.1 UV-I 549 W/m 4.6 C 13.9 C 8.6 km/h (2 Bft)
29.03.2007 14:00 13.3 C 53 % 1014.2 hPa 0.0 l/m 5.0 km/h (1 Bft) W 0.10 h 1.7 UV-I 211 W/m 3.8 C 13.3 C 8.3 km/h (2 Bft)
29.03.2007 15:00 12.8 C 54 % 1014.1 hPa 0.0 l/m 10.1 km/h (2 Bft) W 0.00 h 1.5 UV-I 209 W/m 3.6 C 12.8 C 15.5 km/h (3 Bft)
29.03.2007 16:00 12.0 C 56 % 1013.8 hPa 0.0 l/m 8.8 km/h (2 Bft) W-NW 0.27 h 1.3 UV-I 300 W/m 3.4 C 12.0 C 14.0 km/h (3 Bft)
29.03.2007 17:00 13.9 C 48 % 1013.0 hPa 0.0 l/m 1.5 km/h (1 Bft) N 1.00 h 1.0 UV-I 329 W/m 3.1 C 13.9 C 3.5 km/h (1 Bft)
29.03.2007 18:00 13.3 C 49 % 1012.8 hPa 0.0 l/m 6.9 km/h (2 Bft) W-NW 0.12 h 0.6 UV-I 74 W/m 2.9 C 13.3 C 10.4 km/h (2 Bft)
29.03.2007 19:00 11.2 C 59 % 1013.2 hPa 0.0 l/m 6.1 km/h (2 Bft) W-NW 0.00 h 0.0 UV-I 26 W/m 3.5 C 11.2 C 9.6 km/h (2 Bft)
29.03.2007 20:00 9.2 C 67 % 1013.5 hPa 0.0 l/m 0.7 km/h (0 Bft) NW 0.00 h 0.0 UV-I 0 W/m 3.3 C 9.2 C 1.3 km/h (1 Bft)
29.03.2007 21:00 7.0 C 77 % 1014.0 hPa 0.0 l/m 2.3 km/h (1 Bft) O 0.00 h 0.0 UV-I 0 W/m 3.3 C 6.9 C 3.6 km/h (1 Bft)
29.03.2007 22:00 5.8 C 82 % 1014.1 hPa 0.0 l/m 2.6 km/h (1 Bft) O 0.00 h 0.0 UV-I 0 W/m 3.0 C 5.6 C 3.9 km/h (1 Bft)
29.03.2007 23:00 5.1 C 85 % 1013.7 hPa 0.0 l/m 1.2 km/h (1 Bft) O 0.00 h 0.0 UV-I 0 W/m 2.8 C 5.0 C 1.9 km/h (1 Bft)
30.03.2007 00:00 5.1 C 87 % 1013.2 hPa 0.0 l/m 0.3 km/h (0 Bft) O 0.00 h 0.0 UV-I 0 W/m 3.1 C 5.1 C 1.1 km/h (1 Bft)
30.03.2007 01:00 4.4 C 88 % 1012.8 hPa 0.0 l/m 0.9 km/h (0 Bft) O 0.00 h 0.0 UV-I 0 W/m 2.6 C 4.3 C 1.9 km/h (1 Bft)
30.03.2007 02:00 4.0 C 89 % 1012.4 hPa 0.0 l/m 2.0 km/h (1 Bft) O 0.00 h 0.0 UV-I 0 W/m 2.3 C 3.6 C 2.9 km/h (1 Bft)
30.03.2007 03:00 3.3 C 91 % 1012.1 hPa 0.0 l/m 1.1 km/h (0 Bft) O-SO 0.00 h 0.0 UV-I 0 W/m 2.0 C 3.3 C 2.1 km/h (1 Bft)
30.03.2007 04:00 2.7 C 93 % 1011.7 hPa 0.0 l/m 1.3 km/h (1 Bft) O-SO 0.00 h 0.0 UV-I 0 W/m 1.6 C 2.6 C 2.4 km/h (1 Bft)
30.03.2007 05:00 2.1 C 94 % 1011.3 hPa 0.0 l/m 0.7 km/h (0 Bft) O 0.00 h 0.0 UV-I 0 W/m 1.1 C 2.1 C 1.7 km/h (1 Bft)
30.03.2007 06:00 1.7 C 94 % 1011.5 hPa 0.0 l/m 0.2 km/h (0 Bft) O 0.00 h 0.0 UV-I 0 W/m 0.9 C 1.7 C 0.8 km/h (0 Bft)
30.03.2007 07:00 1.8 C 95 % 1011.5 hPa 0.0 l/m 0.8 km/h (0 Bft) O 0.05 h 0.0 UV-I 30 W/m 1.1 C 1.8 C 1.9 km/h (1 Bft)
30.03.2007 08:00 3.1 C 92 % 1011.5 hPa 0.0 l/m 0.1 km/h (0 Bft) O 0.10 h 0.5 UV-I 115 W/m 2.0 C 3.1 C 0.2 km/h (0 Bft)
30.03.2007 09:00 4.8 C 84 % 1011.3 hPa 0.0 l/m 1.6 km/h (1 Bft) N-NW 0.95 h 0.9 UV-I 308 W/m 2.3 C 4.8 C 3.0 km/h (1 Bft)
30.03.2007 10:00 7.1 C 75 % 1010.9 hPa 0.0 l/m 1.7 km/h (1 Bft) N-NW 0.98 h 1.5 UV-I 409 W/m 2.9 C 7.1 C 3.6 km/h (1 Bft)
30.03.2007 11:00 9.4 C 67 % 1010.3 hPa 0.0 l/m 3.3 km/h (1 Bft) W-NW 0.95 h 2.2 UV-I 499 W/m 3.5 C 9.3 C 5.4 km/h (1 Bft)
30.03.2007 12:00 11.2 C 62 % 1009.5 hPa 0.0 l/m 4.3 km/h (1 Bft) N-NW 0.97 h 3.0 UV-I 616 W/m 4.2 C 11.2 C 7.1 km/h (2 Bft)
30.03.2007 13:00 13.1 C 56 % 1008.5 hPa 0.0 l/m 4.1 km/h (1 Bft) N-NW 1.00 h 3.4 UV-I 680 W/m 4.5 C 13.1 C 6.8 km/h (2 Bft)
30.03.2007 14:00 14.4 C 47 % 1007.7 hPa 0.0 l/m 5.2 km/h (1 Bft) N-NW 1.00 h 3.1 UV-I 654 W/m 3.2 C 14.4 C 8.4 km/h (2 Bft)
30.03.2007 15:00 15.1 C 40 % 1007.2 hPa 0.0 l/m 5.0 km/h (1 Bft) W 0.93 h 2.2 UV-I 471 W/m 1.7 C 15.1 C 8.0 km/h (2 Bft)
30.03.2007 16:00 15.0 C 41 % 1006.8 hPa 0.0 l/m 6.7 km/h (2 Bft) W-NW 0.95 h 1.5 UV-I 402 W/m 1.8 C 15.0 C 10.1 km/h (2 Bft)
30.03.2007 17:00 14.1 C 52 % 1006.7 hPa 0.0 l/m 10.7 km/h (2 Bft) W 0.67 h 0.8 UV-I 253 W/m 4.4 C 14.1 C 16.6 km/h (3 Bft)
30.03.2007 18:00 13.2 C 52 % 1007.0 hPa 0.0 l/m 4.4 km/h (1 Bft) W-SW 0.00 h 0.0 UV-I 101 W/m 3.4 C 13.2 C 7.3 km/h (2 Bft)
30.03.2007 19:00 12.1 C 60 % 1007.2 hPa 0.0 l/m 7.4 km/h (2 Bft) W 0.00 h 0.0 UV-I 28 W/m 4.6 C 12.1 C 11.6 km/h (2 Bft)
30.03.2007 20:00 8.4 C 71 % 1008.8 hPa 0.0 l/m 24.1 km/h (4 Bft) W-NW 0.00 h 0.0 UV-I 0 W/m 3.4 C 5.6 C 36.6 km/h (5 Bft)
30.03.2007 21:00 5.5 C 74 % 1011.3 hPa 0.0 l/m 14.2 km/h (3 Bft) W-NW 0.00 h 0.0 UV-I 0 W/m 1.1 C 2.6 C 23.4 km/h (4 Bft)
30.03.2007 22:00 4.9 C 72 % 1012.7 hPa 0.0 l/m 6.2 km/h (2 Bft) W 0.00 h 0.0 UV-I 0 W/m 0.3 C 3.8 C 10.3 km/h (2 Bft)
30.03.2007 23:00 3.6 C 83 % 1013.6 hPa 0.8 l/m 7.2 km/h (2 Bft) W-SW 0.00 h 0.0 UV-I 0 W/m 1.0 C 2.0 C 11.6 km/h (2 Bft)
31.03.2007 00:00 2.5 C 92 % 1014.4 hPa 0.2 l/m 4.3 km/h (1 Bft) W-SW 0.00 h 0.0 UV-I 0 W/m 1.4 C 1.7 C 7.2 km/h (2 Bft)
31.03.2007 01:00 2.3 C 94 % 1014.5 hPa 0.2 l/m 2.8 km/h (1 Bft) W-SW 0.00 h 0.0 UV-I 0 W/m 1.4 C 2.0 C 5.3 km/h (1 Bft)
31.03.2007 02:00 1.4 C 96 % 1014.6 hPa 1.0 l/m 2.7 km/h (1 Bft) SW 0.00 h 0.0 UV-I 0 W/m 0.8 C 1.3 C 5.6 km/h (1 Bft)
31.03.2007 03:00 1.5 C 97 % 1014.5 hPa 0.4 l/m 2.2 km/h (1 Bft) SW 0.00 h 0.0 UV-I 0 W/m 1.1 C 1.4 C 4.4 km/h (1 Bft)
31.03.2007 04:00 2.0 C 96 % 1014.3 hPa 0.6 l/m 1.0 km/h (0 Bft) SW 0.00 h 0.0 UV-I 0 W/m 1.5 C 2.0 C 2.8 km/h (1 Bft)
31.03.2007 05:00 1.5 C 95 % 1014.3 hPa 1.2 l/m 0.3 km/h (0 Bft) S-SW 0.00 h 0.0 UV-I 0 W/m 0.8 C 1.5 C 1.5 km/h (1 Bft)
31.03.2007 06:00 1.3 C 97 % 1014.2 hPa 0.6 l/m 0.7 km/h (0 Bft) SW 0.00 h 0.0 UV-I 0 W/m 0.8 C 1.3 C 2.1 km/h (1 Bft)
31.03.2007 07:00 1.2 C 97 % 1014.4 hPa 0.2 l/m 1.1 km/h (0 Bft) S-SO 0.00 h 0.0 UV-I 12 W/m 0.7 C 1.2 C 2.7 km/h (1 Bft)
31.03.2007 08:00 1.5 C 97 % 1014.8 hPa 0.2 l/m 0.1 km/h (0 Bft) S-SO 0.00 h 0.5 UV-I 45 W/m 1.1 C 1.5 C 0.3 km/h (0 Bft)
31.03.2007 09:00 2.2 C 97 % 1015.3 hPa 0.4 l/m 0.8 km/h (0 Bft) W 0.00 h 0.5 UV-I 113 W/m 1.8 C 2.2 C 2.4 km/h (1 Bft)
31.03.2007 10:00 2.8 C 94 % 1015.8 hPa 0.0 l/m 0.4 km/h (0 Bft) W 0.00 h 0.9 UV-I 165 W/m 1.9 C 2.8 C 1.5 km/h (1 Bft)
31.03.2007 11:00 3.9 C 87 % 1015.9 hPa 0.0 l/m 1.6 km/h (1 Bft) NW 0.00 h 1.5 UV-I 287 W/m 2.0 C 3.9 C 3.4 km/h (1 Bft)
31.03.2007 12:00 4.8 C 84 % 1015.8 hPa 0.0 l/m 1.9 km/h (1 Bft) N-NW 0.00 h 1.6 UV-I 256 W/m 2.3 C 4.8 C 3.5 km/h (1 Bft)
31.03.2007 13:00 5.4 C 82 % 1015.7 hPa 0.0 l/m 1.3 km/h (1 Bft) W 0.00 h 1.6 UV-I 231 W/m 2.5 C 5.4 C 2.7 km/h (1 Bft)
31.03.2007 14:00 6.1 C 80 % 1015.8 hPa 0.0 l/m 1.5 km/h (1 Bft) W-NW 0.00 h 1.5 UV-I 215 W/m 2.9 C 6.1 C 3.1 km/h (1 Bft)
31.03.2007 15:00 7.1 C 77 % 1016.0 hPa 0.0 l/m 2.3 km/h (1 Bft) SO 0.00 h 1.5 UV-I 240 W/m 3.3 C 7.0 C 4.7 km/h (1 Bft)
31.03.2007 16:00 7.8 C 75 % 1016.1 hPa 0.0 l/m 1.9 km/h (1 Bft) SO 0.00 h 1.0 UV-I 181 W/m 3.7 C 7.7 C 4.1 km/h (1 Bft)
31.03.2007 17:00 7.9 C 74 % 1016.2 hPa 0.0 l/m 1.8 km/h (1 Bft) O-SO 0.00 h 0.6 UV-I 127 W/m 3.5 C 7.8 C 3.6 km/h (1 Bft)
31.03.2007 18:00 7.9 C 74 % 1016.3 hPa 0.0 l/m 1.7 km/h (1 Bft) O-SO 0.00 h 0.5 UV-I 70 W/m 3.6 C 7.8 C 3.6 km/h (1 Bft)
31.03.2007 19:00 7.7 C 76 % 1016.8 hPa 0.0 l/m 0.2 km/h (0 Bft) O-SO 0.00 h 0.0 UV-I 18 W/m 3.7 C 7.7 C 0.8 km/h (0 Bft)
31.03.2007 20:00 7.4 C 80 % 1017.3 hPa 0.0 l/m 0.0 km/h (0 Bft) N 0.00 h 0.0 UV-I 0 W/m 4.2 C 7.4 C 0.1 km/h (0 Bft)
31.03.2007 21:00 6.8 C 86 % 1017.9 hPa 0.0 l/m 0.2 km/h (0 Bft) O-SO 0.00 h 0.0 UV-I 0 W/m 4.6 C 6.8 C 0.6 km/h (0 Bft)
31.03.2007 22:00 6.1 C 87 % 1018.2 hPa 0.0 l/m 1.3 km/h (1 Bft) O-SO 0.00 h 0.0 UV-I 0 W/m 4.1 C 6.1 C 2.2 km/h (1 Bft)
31.03.2007 23:00 5.5 C 89 % 1018.1 hPa 0.0 l/m 1.8 km/h (1 Bft) O-SO 0.00 h 0.0 UV-I 0 W/m 3.8 C 5.5 C 3.1 km/h (1 Bft)
01.04.2007 00:00 5.2 C 90 % 1018.4 hPa 0.0 l/m 2.4 km/h (1 Bft) O 0.00 h 0.0 UV-I 0 W/m 3.7 C 5.1 C 3.6 km/h (1 Bft)
01.04.2007 01:00 5.3 C 91 % 1018.9 hPa 0.0 l/m 0.4 km/h (0 Bft) O 0.00 h 0.0 UV-I 0 W/m 3.9 C 5.3 C 1.3 km/h (1 Bft)
01.04.2007 02:00 5.5 C 91 % 1019.2 hPa 0.0 l/m 1.8 km/h (1 Bft) N-NW 0.00 h 0.0 UV-I 0 W/m 4.2 C 5.3 C 3.4 km/h (1 Bft)
01.04.2007 03:00 5.5 C 92 % 1019.2 hPa 0.0 l/m 3.2 km/h (1 Bft) N-NW 0.00 h 0.0 UV-I 0 W/m 4.3 C 5.2 C 5.3 km/h (1 Bft)
01.04.2007 04:00 5.1 C 92 % 1019.3 hPa 0.0 l/m 0.8 km/h (0 Bft) N 0.00 h 0.0 UV-I 0 W/m 3.9 C 5.1 C 1.9 km/h (1 Bft)
01.04.2007 05:00 4.1 C 94 % 1019.8 hPa 0.0 l/m 2.2 km/h (1 Bft) N-NO 0.00 h 0.0 UV-I 0 W/m 3.1 C 4.0 C 3.5 km/h (1 Bft)
01.04.2007 06:00 3.0 C 96 % 1020.4 hPa 0.0 l/m 2.0 km/h (1 Bft) O 0.00 h 0.0 UV-I 0 W/m 2.4 C 2.9 C 3.1 km/h (1 Bft)
01.04.2007 07:00 3.7 C 97 % 1021.2 hPa 0.0 l/m 0.0 km/h (0 Bft) N 0.00 h 0.0 UV-I 15 W/m 3.2 C 3.7 C 0.4 km/h (0 Bft)
01.04.2007 08:00 4.6 C 96 % 1021.9 hPa 0.0 l/m 0.1 km/h (0 Bft) O 0.00 h 0.0 UV-I 38 W/m 4.0 C 4.6 C 0.6 km/h (0 Bft)
01.04.2007 09:00 5.3 C 93 % 1022.6 hPa 0.0 l/m 0.5 km/h (0 Bft) O 0.00 h 0.5 UV-I 96 W/m 4.2 C 5.3 C 1.3 km/h (1 Bft)
01.04.2007 10:00 6.2 C 87 % 1023.1 hPa 0.0 l/m 1.8 km/h (1 Bft) NW 0.07 h 1.3 UV-I 227 W/m 4.1 C 6.1 C 3.4 km/h (1 Bft)
01.04.2007 11:00 8.1 C 78 % 1023.0 hPa 0.0 l/m 2.3 km/h (1 Bft) O-SO 0.55 h 2.3 UV-I 396 W/m 4.5 C 8.1 C 5.0 km/h (1 Bft)
01.04.2007 12:00 8.7 C 77 % 1023.3 hPa 0.0 l/m 2.8 km/h (1 Bft) O-SO 0.15 h 2.5 UV-I 381 W/m 4.8 C 8.6 C 5.7 km/h (1 Bft)
01.04.2007 13:00 10.2 C 73 % 1022.8 hPa 0.0 l/m 4.2 km/h (1 Bft) O-SO 1.00 h 4.0 UV-I 722 W/m 5.6 C 10.0 C 7.4 km/h (2 Bft)
01.04.2007 14:00 12.0 C 68 % 1022.6 hPa 0.0 l/m 3.7 km/h (1 Bft) O 1.00 h 3.7 UV-I 669 W/m 6.2 C 12.0 C 7.0 km/h (2 Bft)
01.04.2007 15:00 13.6 C 64 % 1022.3 hPa 0.0 l/m 4.8 km/h (1 Bft) O-SO 1.00 h 3.0 UV-I 601 W/m 6.9 C 13.6 C 8.5 km/h (2 Bft)
01.04.2007 16:00 14.9 C 60 % 1021.9 hPa 0.0 l/m 5.6 km/h (1 Bft) O-SO 1.00 h 2.0 UV-I 491 W/m 7.1 C 14.9 C 9.4 km/h (2 Bft)
01.04.2007 17:00 15.0 C 59 % 1022.1 hPa 0.0 l/m 6.3 km/h (2 Bft) O-SO 0.77 h 1.1 UV-I 306 W/m 7.1 C 15.0 C 9.3 km/h (2 Bft)
01.04.2007 18:00 14.3 C 61 % 1022.5 hPa 0.0 l/m 4.7 km/h (1 Bft) O-SO 0.22 h 0.6 UV-I 101 W/m 6.9 C 14.3 C 7.2 km/h (2 Bft)
01.04.2007 19:00 12.9 C 65 % 1023.0 hPa 0.0 l/m 2.9 km/h (1 Bft) O-SO 0.03 h 0.0 UV-I 33 W/m 6.4 C 12.9 C 4.7 km/h (1 Bft)
01.04.2007 20:00 11.3 C 70 % 1023.6 hPa 0.0 l/m 0.2 km/h (0 Bft) O 0.00 h 0.0 UV-I 0 W/m 5.9 C 11.3 C 1.0 km/h (0 Bft)
01.04.2007 21:00 9.2 C 79 % 1024.2 hPa 0.0 l/m 0.6 km/h (0 Bft) O 0.00 h 0.0 UV-I 0 W/m 5.8 C 9.2 C 1.3 km/h (1 Bft)
01.04.2007 22:00 7.8 C 83 % 1024.5 hPa 0.0 l/m 2.4 km/h (1 Bft) O 0.00 h 0.0 UV-I 0 W/m 5.2 C 7.8 C 3.7 km/h (1 Bft)
01.04.2007 23:00 6.7 C 88 % 1024.8 hPa 0.0 l/m 1.2 km/h (1 Bft) O 0.00 h 0.0 UV-I 0 W/m 4.8 C 6.6 C 2.4 km/h (1 Bft)
Min-Datum _ 26.03.07 30.03.07 30.03.07 - 26.03.07 - - - - 27.03.07 26.03.07 26.03.07
_ Min-Zeit 05:23 16:03 17:15 - 00:04 - - - - 06:22 01:13 00:05
Minimum _ -0.4 C 37 % 1006.6 hPa - 0.0 km/h (0 Bft) - - - - -0.9 C -2.1 C 0.0 km/h (0 Bft)
Max-Datum _ 27.03.07 26.03.07 01.04.07 31.03.07 30.03.07 - 26.03.07 01.04.07 28.03.07 01.04.07 27.03.07 30.03.07
_ Max-Zeit 17:05 05:43 23:45 05:03 20:28 - 07:30 12:58 14:38 16:57 17:05 20:36
Maximum _ 16.3 C 98 % 1024.9 hPa 1.2 l/m 39.3 km/h
W-NW (6 Bft)
- 0.02 h 4.1 UV-I 861 W/m 8.2 C 16.3 C 57.2 km/h
W-NW (7 Bft)
Durchschnitt _ 7.0 C 77 % 1015.7 hPa #6.0 l/m 2.7 km/h (1 Bft) O-SO #43:35 h 1.7 UV-I 301 W/m 2.9 C 6.9 C 4.8 km/h (1 Bft)
© Kaiko 2007